Time;durP1;ratioP1;P1;durP2;ratioP2;P2;SDS_P1;SDS_P2;PMS_P1;PMS_P2;Temp;Humidity;BMP_temperature;BMP_pressure;BME280_temperature;BME280_humidity;BME280_pressure;Samples;Min_cycle;Max_cycle;Signal;HPM_P1;HPM_P2
2022/11/12 00:04:17;;;;;;;24.15;14.57;;;;;;;4.42;100.00;103094.50;12781063;23;20013;-91
2022/11/12 00:09:18;;;;;;;24.83;14.90;;;;;;;4.30;100.00;103090.31;12781811;23;20021;-89
2022/11/12 00:14:18;;;;;;;29.98;15.63;;;;;;;4.32;100.00;103107.38;12784721;23;20017;-85
2022/11/12 00:19:19;;;;;;;27.48;15.32;;;;;;;4.29;100.00;103110.41;12758359;23;20025;-91
2022/11/12 00:24:19;;;;;;;24.15;14.48;;;;;;;4.28;100.00;103105.97;12808694;23;20013;-91
2022/11/12 00:29:20;;;;;;;27.50;16.15;;;;;;;4.31;100.00;103100.22;12770641;23;20024;-92
2022/11/12 00:34:20;;;;;;;28.98;16.75;;;;;;;4.30;100.00;103095.75;12785013;23;20013;-91
2022/11/12 00:39:21;;;;;;;32.75;17.08;;;;;;;4.39;100.00;103111.19;12758529;23;20025;-91
2022/11/12 00:44:21;;;;;;;32.13;17.60;;;;;;;4.36;100.00;103095.13;12786418;23;20073;-91
2022/11/12 00:49:22;;;;;;;34.13;18.65;;;;;;;4.41;100.00;103098.25;12759975;23;20013;-87
2022/11/12 00:54:23;;;;;;;33.25;17.88;;;;;;;4.49;100.00;103114.69;12759710;23;20032;-92
2022/11/12 00:59:23;;;;;;;32.03;18.48;;;;;;;4.44;100.00;103119.72;12760102;23;20017;-91
2022/11/12 01:04:24;;;;;;;29.48;17.75;;;;;;;4.34;100.00;103103.50;12810156;23;20009;-92
2022/11/12 01:09:24;;;;;;;32.00;18.88;;;;;;;4.43;100.00;103123.50;12759373;23;20584;-93
2022/11/12 01:14:26;;;;;;;37.47;17.63;;;;;;;4.38;100.00;103120.38;12782876;23;20017;-93
2022/11/12 01:19:27;;;;;;;33.63;20.42;;;;;;;4.42;100.00;103127.22;12784547;23;20012;-94
2022/11/12 01:24:27;;;;;;;36.00;19.23;;;;;;;4.33;100.00;103114.53;12780799;23;20017;-89
2022/11/12 01:29:28;;;;;;;32.42;18.13;;;;;;;4.39;100.00;103117.50;12781820;23;20024;-92
2022/11/12 01:34:28;;;;;;;34.38;20.65;;;;;;;4.32;100.00;103108.25;12809192;23;20017;-89
2022/11/12 01:39:28;;;;;;;34.28;19.00;;;;;;;4.31;100.00;103122.88;12780950;23;20024;-91
2022/11/12 01:44:30;;;;;;;35.05;19.70;;;;;;;4.20;100.00;103106.78;12759196;23;20017;-90
2022/11/12 01:49:34;;;;;;;32.42;19.38;;;;;;;4.13;100.00;103106.53;12781919;23;20369;-91
2022/11/12 01:54:35;;;;;;;36.13;20.92;;;;;;;4.16;100.00;103108.94;12755681;23;20924;-91
2022/11/12 01:59:39;;;;;;;38.45;22.55;;;;;;;4.04;100.00;103080.22;12782438;23;20095;-91
2022/11/12 02:04:40;;;;;;;37.17;21.98;;;;;;;4.12;100.00;103088.47;12710409;23;20091;-92
2022/11/12 02:09:40;;;;;;;38.05;21.13;;;;;;;4.20;100.00;103107.63;12733806;23;20375;-92
2022/11/12 02:14:41;;;;;;;38.67;21.30;;;;;;;4.11;100.00;103097.63;12782553;23;20040;-91
2022/11/12 02:19:41;;;;;;;36.50;22.33;;;;;;;4.07;100.00;103100.84;12781747;23;20024;-91
2022/11/12 02:24:42;;;;;;;40.88;24.00;;;;;;;4.11;100.00;103081.28;12809205;23;20013;-92
2022/11/12 02:29:45;;;;;;;43.13;24.33;;;;;;;4.24;100.00;103091.81;12782077;23;20009;-92
2022/11/12 02:34:45;;;;;;;40.17;23.40;;;;;;;4.18;100.00;103093.28;12758468;23;20043;-91
2022/11/12 02:39:46;;;;;;;46.08;27.40;;;;;;;4.22;100.00;103094.69;12743253;23;20359;-81
2022/11/12 02:44:46;;;;;;;51.20;29.80;;;;;;;4.03;100.00;103026.69;12754180;23;20021;-91
2022/11/12 02:49:47;;;;;;;52.17;28.75;;;;;;;4.45;100.00;103107.81;12780773;23;20071;-89
2022/11/12 02:54:47;;;;;;;52.70;27.63;;;;;;;4.36;100.00;103106.91;12782239;23;20023;-91
2022/11/12 02:59:47;;;;;;;49.15;28.00;;;;;;;4.40;100.00;103105.56;12782182;23;20013;-92
2022/11/12 03:04:48;;;;;;;41.50;26.33;;;;;;;4.28;100.00;103098.66;12808230;23;20069;-90
2022/11/12 03:09:48;;;;;;;56.08;29.60;;;;;;;4.29;100.00;103103.09;12809152;23;20028;-90
2022/11/12 03:14:49;;;;;;;47.45;29.70;;;;;;;4.26;100.00;103111.59;12756893;23;20024;-90
2022/11/12 03:19:49;;;;;;;47.95;27.40;;;;;;;4.02;100.00;103096.72;12781247;23;20021;-91
2022/11/12 03:24:50;;;;;;;48.72;26.15;;;;;;;4.03;100.00;103103.03;12779120;23;20024;-92
2022/11/12 03:29:50;;;;;;;46.90;27.83;;;;;;;3.97;100.00;103134.50;12781768;23;20013;-91
2022/11/12 03:34:51;;;;;;;55.10;28.23;;;;;;;3.34;100.00;103020.97;12779392;23;20050;-91
2022/11/12 03:39:51;;;;;;;44.72;26.48;;;;;;;3.78;100.00;103107.38;12780167;23;20017;-91
2022/11/12 03:44:51;;;;;;;50.38;28.60;;;;;;;3.70;100.00;103100.00;12781793;23;20021;-92
2022/11/12 03:49:52;;;;;;;51.20;28.77;;;;;;;3.73;100.00;103091.50;12811589;23;20029;-91
2022/11/12 03:54:52;;;;;;;50.35;30.05;;;;;;;3.74;100.00;103120.47;12811962;23;20044;-91
2022/11/12 03:59:53;;;;;;;53.00;29.95;;;;;;;3.67;100.00;103105.75;12784819;23;20028;-92
2022/11/12 04:10:13;;;;;;;51.05;27.27;;;;;;;3.67;100.00;103103.00;12790553;23;20017;-92
2022/11/12 04:15:13;;;;;;;54.60;30.58;;;;;;;3.62;100.00;103108.09;12761460;23;20044;-91
2022/11/12 04:30:52;;;;;;;48.28;28.45;;;;;;;3.44;100.00;103106.16;12797525;23;20017;-93
2022/11/12 04:35:52;;;;;;;47.00;27.58;;;;;;;3.47;100.00;103095.97;12759439;23;20021;-92
2022/11/12 04:46:12;;;;;;;38.50;23.55;;;;;;;3.41;100.00;103101.03;12810419;23;20101;-91
2022/11/12 04:56:31;;;;;;;36.15;20.00;;;;;;;3.34;100.00;103099.91;12787538;23;20091;-91
2022/11/12 05:01:32;;;;;;;33.30;20.25;;;;;;;2.95;100.00;103045.66;12782416;23;20013;-91
2022/11/12 05:06:51;;;;;;;28.42;18.50;;;;;;;3.23;100.00;103121.91;12785023;23;20021;-91
2022/11/12 05:11:52;;;;;;;29.23;17.55;;;;;;;3.15;100.00;103110.91;12789667;23;20032;-91
2022/11/12 05:16:52;;;;;;;30.00;19.02;;;;;;;3.15;100.00;103100.03;12779108;23;20505;-91
2022/11/12 05:22:05;;;;;;;34.15;17.45;;;;;;;3.23;100.00;103127.34;12808845;23;20028;-91
2022/11/12 05:27:10;;;;;;;31.70;18.33;;;;;;;3.24;100.00;103123.59;12784372;23;20032;-90
2022/11/12 05:32:13;;;;;;;31.70;16.02;;;;;;;3.20;100.00;103106.75;12806244;23;20075;-91
2022/11/12 05:37:14;;;;;;;26.80;16.60;;;;;;;3.17;100.00;103126.09;12785675;23;20013;-91
2022/11/12 05:42:14;;;;;;;27.52;15.20;;;;;;;3.02;100.00;103116.72;12812541;23;20013;-91
2022/11/12 05:47:15;;;;;;;31.98;16.95;;;;;;;3.10;100.00;103110.50;12812155;23;20017;-91
2022/11/12 05:52:16;;;;;;;25.98;15.00;;;;;;;3.11;100.00;103137.56;12809892;23;20075;-92
2022/11/12 05:57:16;;;;;;;25.45;14.85;;;;;;;3.11;100.00;103134.00;12810547;23;20023;-90
2022/11/12 06:02:16;;;;;;;24.88;14.98;;;;;;;3.03;100.00;103113.81;12811295;23;20013;-90
2022/11/12 06:07:17;;;;;;;28.70;17.00;;;;;;;3.15;100.00;103128.09;12784756;23;20013;-90
2022/11/12 06:12:17;;;;;;;31.15;16.92;;;;;;;3.13;100.00;103119.22;12809323;23;20017;-90
2022/11/12 06:17:18;;;;;;;30.83;15.30;;;;;;;3.00;100.00;103108.69;12809277;23;20017;-80
2022/11/12 06:22:18;;;;;;;32.78;16.00;;;;;;;3.05;100.00;103131.88;12744391;23;20303;-90
2022/11/12 06:27:19;;;;;;;33.80;15.43;;;;;;;2.96;100.00;103130.91;12778682;23;20039;-90
2022/11/12 06:32:19;;;;;;;27.27;14.73;;;;;;;2.89;100.00;103127.03;12779077;23;20023;-89
2022/11/12 06:37:20;;;;;;;24.73;13.80;;;;;;;2.82;100.00;103121.34;12757686;23;20040;-91
2022/11/12 06:42:21;;;;;;;28.88;15.70;;;;;;;2.84;100.00;103113.88;12810496;23;20044;-90
2022/11/12 06:47:21;;;;;;;27.95;15.88;;;;;;;2.76;100.00;103100.16;12785744;23;20023;-92
2022/11/12 06:52:22;;;;;;;29.15;16.63;;;;;;;2.91;100.00;103119.59;12791627;23;20014;-79
2022/11/12 06:57:23;;;;;;;24.27;14.77;;;;;;;2.89;100.00;103108.84;12809031;23;20024;-91
2022/11/12 07:02:23;;;;;;;30.50;16.15;;;;;;;2.90;100.00;103117.88;12758108;23;20481;-90
2022/11/12 07:07:23;;;;;;;29.88;15.30;;;;;;;2.87;100.00;103118.16;12755141;23;20013;-89
2022/11/12 07:12:24;;;;;;;29.02;15.70;;;;;;;2.84;100.00;103116.63;12829099;23;20032;-91
2022/11/12 07:17:24;;;;;;;27.08;15.82;;;;;;;2.87;100.00;103135.34;12868249;23;20195;-91
2022/11/12 07:22:25;;;;;;;31.55;17.13;;;;;;;2.92;100.00;103160.25;12843103;23;20031;-92
2022/11/12 07:27:29;;;;;;;26.23;15.25;;;;;;;2.88;100.00;103158.84;12842748;23;20013;-90
2022/11/12 07:32:29;;;;;;;26.98;15.85;;;;;;;2.90;100.00;103167.72;12869715;23;20088;-89
2022/11/12 07:37:29;;;;;;;34.15;17.92;;;;;;;2.96;100.00;103160.84;12842981;23;20016;-92
2022/11/12 07:42:34;;;;;;;38.63;16.90;;;;;;;2.97;100.00;103144.34;12843963;23;20047;-87
2022/11/12 07:47:34;;;;;;;33.90;18.17;;;;;;;3.12;100.00;103160.19;12843335;23;20371;-92
2022/11/12 07:52:35;;;;;;;33.83;17.67;;;;;;;3.11;100.00;103153.03;12817401;23;20027;-90
2022/11/12 07:57:35;;;;;;;44.25;22.92;;;;;;;3.34;100.00;103167.97;12868143;23;20013;-86
2022/11/12 08:02:35;;;;;;;45.85;23.45;;;;;;;3.37;100.00;103170.41;12842890;23;20020;-93
2022/11/12 08:07:36;;;;;;;42.65;22.85;;;;;;;3.64;100.00;103198.69;12834887;23;20016;-91
2022/11/12 08:12:36;;;;;;;40.80;22.88;;;;;;;3.80;100.00;103204.31;12817167;23;20014;-92
2022/11/12 08:17:38;;;;;;;37.28;22.80;;;;;;;3.97;100.00;103199.03;12774923;23;20028;-91
2022/11/12 08:22:39;;;;;;;37.80;22.75;;;;;;;4.30;100.00;103215.75;12748528;23;20322;-91
2022/11/12 08:27:40;;;;;;;39.08;22.75;;;;;;;4.59;100.00;103218.25;12798032;23;20024;-92
2022/11/12 08:32:40;;;;;;;36.53;21.77;;;;;;;4.82;100.00;103229.53;12774176;23;20020;-93
2022/11/12 08:37:40;;;;;;;34.17;21.83;;;;;;;5.04;100.00;103237.22;12800776;23;20013;-94
2022/11/12 08:42:41;;;;;;;37.30;21.80;;;;;;;4.88;100.00;103182.50;12800614;23;20174;-92
2022/11/12 08:47:41;;;;;;;34.22;20.77;;;;;;;5.31;100.00;103232.59;12774440;23;20016;-93
2022/11/12 08:52:42;;;;;;;46.70;21.92;;;;;;;5.25;100.00;103195.03;12771279;23;20013;-92
2022/11/12 08:57:42;;;;;;;43.30;22.27;;;;;;;5.58;100.00;103206.97;12800242;23;20343;-88
2022/11/12 09:02:43;;;;;;;64.45;27.23;;;;;;;5.72;100.00;103215.56;12774039;23;20017;-91
2022/11/12 09:07:43;;;;;;;84.85;29.35;;;;;;;5.80;100.00;103216.44;12800167;23;20017;-93
2022/11/12 09:12:43;;;;;;;108.53;30.42;;;;;;;5.98;100.00;103218.25;12804256;23;20477;-93
2022/11/12 09:17:44;;;;;;;97.18;31.73;;;;;;;5.88;100.00;103182.81;12776222;23;20375;-93
2022/11/12 09:22:44;;;;;;;161.65;34.92;;;;;;;6.30;100.00;103243.97;12773464;23;20021;-91
2022/11/12 09:27:45;;;;;;;170.07;34.10;;;;;;;6.40;100.00;103233.72;12798563;23;20017;-92
2022/11/12 09:32:45;;;;;;;127.70;35.05;;;;;;;6.59;100.00;103230.66;12798812;23;20017;-90
2022/11/12 09:37:46;;;;;;;102.05;33.80;;;;;;;6.78;100.00;103247.78;12768998;23;20466;-91
2022/11/12 09:42:48;;;;;;;119.68;31.65;;;;;;;6.94;100.00;103234.06;12772068;23;20017;-88
2022/11/12 09:47:54;;;;;;;117.30;29.85;;;;;;;6.92;100.00;103202.41;12771955;23;20028;-93
2022/11/12 09:53:00;;;;;;;139.57;31.08;;;;;;;6.83;100.00;103218.00;12724854;23;20078;-90
2022/11/12 09:58:00;;;;;;;111.00;29.98;;;;;;;6.96;100.00;103253.09;12774970;23;20028;-91
2022/11/12 10:03:07;;;;;;;86.40;30.02;;;;;;;7.13;100.00;103237.47;12774875;23;20017;-92
2022/11/12 10:08:14;;;;;;;;;;;;;;;7.19;100.00;103223.97;12728168;23;20013;-91
2022/11/12 10:13:46;;;;;;;78.78;30.25;;;;;;;7.32;100.00;103228.91;12828668;23;19962;-95
2022/11/12 10:19:24;;;;;;;72.97;30.40;;;;;;;7.53;100.00;103224.75;12838763;23;20025;-88
2022/11/12 10:24:24;;;;;;;97.65;34.60;;;;;;;7.63;100.00;103220.75;12864435;23;20021;-93
2022/11/12 10:29:53;;;;;;;79.47;36.65;;;;;;;7.66;100.00;103192.13;12811039;23;20012;-92
2022/11/12 10:34:54;;;;;;;121.35;34.35;;;;;;;7.95;100.00;103196.09;12818851;23;20039;-92
2022/11/12 10:39:54;;;;;;;63.15;32.55;;;;;;;7.93;100.00;103192.69;12810779;23;20099;-90
2022/11/12 10:44:55;;;;;;;68.85;34.42;;;;;;;8.25;100.00;103213.59;12835170;23;20013;-92
2022/11/12 10:50:01;;;;;;;64.30;33.78;;;;;;;8.48;100.00;103203.50;12811064;23;20362;-94
2022/11/12 10:55:05;;;;;;;59.67;34.08;;;;;;;8.35;100.00;103142.84;12834147;23;20027;-92
2022/11/12 11:00:11;;;;;;;52.60;29.42;;;;;;;8.59;100.00;103176.63;12835013;23;20016;-88
2022/11/12 11:05:45;;;;;;;56.28;30.63;;;;;;;8.68;100.00;103173.66;12860883;23;20017;-92
2022/11/12 11:10:46;;;;;;;41.35;25.35;;;;;;;8.81;100.00;103163.91;12813798;23;20019;-89
2022/11/12 11:16:00;;;;;;;39.15;21.65;;;;;;;9.03;100.00;103163.00;12835455;23;20019;-92
2022/11/12 11:21:13;;;;;;;32.25;20.48;;;;;;;9.21;100.00;103153.53;12835477;23;20020;-91
2022/11/12 11:26:25;;;;;;;24.52;17.17;;;;;;;9.42;100.00;103153.59;12863343;23;20012;-91
2022/11/12 11:31:35;;;;;;;21.30;15.88;;;;;;;9.60;100.00;103131.22;12861666;23;20022;-92
2022/11/12 11:36:54;;;;;;;22.40;15.00;;;;;;;9.76;100.00;103135.63;12862153;23;20055;-88
2022/11/12 11:42:29;;;;;;;21.33;14.57;;;;;;;9.92;100.00;103150.19;12812641;23;20028;-90
2022/11/12 11:47:44;;;;;;;19.13;13.45;;;;;;;10.02;100.00;103136.97;12804343;23;20021;-91
2022/11/12 11:52:50;;;;;;;17.23;11.82;;;;;;;10.08;100.00;103138.94;12833882;23;20020;-91
2022/11/12 11:58:02;;;;;;;22.05;12.13;;;;;;;10.09;100.00;103141.50;12860631;23;20017;-90
2022/11/12 12:03:16;;;;;;;21.20;12.70;;;;;;;10.22;100.00;103154.56;12834301;23;20027;-88
2022/11/12 12:08:35;;;;;;;17.27;11.57;;;;;;;10.19;100.00;103112.78;12812176;23;20028;-91
2022/11/12 12:14:12;;;;;;;18.80;11.60;;;;;;;10.52;100.00;103126.88;12837733;23;20017;-89
2022/11/12 12:19:26;;;;;;;16.88;10.55;;;;;;;10.90;100.00;103126.56;12863486;23;20088;-89
2022/11/12 12:24:29;;;;;;;13.32;10.45;;;;;;;11.40;100.00;103110.72;12837925;23;20013;-91
2022/11/12 12:29:33;;;;;;;17.45;10.98;;;;;;;11.96;100.00;103095.03;12839412;23;20012;-91
2022/11/12 12:34:42;;;;;;;14.18;9.70;;;;;;;12.47;100.00;103053.84;12839382;23;20020;-91
2022/11/12 12:39:56;;;;;;;14.98;9.02;;;;;;;12.72;100.00;103031.06;12814902;23;20037;-93
2022/11/12 12:45:04;;;;;;;15.63;8.77;;;;;;;13.64;100.00;103069.66;12814039;23;20024;-91
2022/11/12 12:50:09;;;;;;;13.68;9.45;;;;;;;13.65;100.00;103010.47;12771240;23;20009;-91
2022/11/12 12:55:35;;;;;;;15.95;10.00;;;;;;;14.19;100.00;103069.94;12770557;23;20021;-93
2022/11/12 13:00:37;;;;;;;13.13;9.10;;;;;;;14.78;100.00;103067.75;12795250;23;20051;-93
2022/11/12 13:05:41;;;;;;;12.48;8.43;;;;;;;15.32;100.00;103066.06;12771166;23;20033;-93
2022/11/12 13:10:42;;;;;;;14.48;8.77;;;;;;;15.51;100.00;103061.31;12796049;23;20067;-92
2022/11/12 13:15:46;;;;;;;10.05;8.07;;;;;;;15.44;100.00;103052.25;12795940;23;20044;-92
2022/11/12 13:21:09;;;;;;;12.40;8.32;;;;;;;14.89;100.00;103064.19;12788102;23;20017;-92
2022/11/12 13:26:44;;;;;;;15.40;8.50;;;;;;;14.07;100.00;103067.03;12863440;23;20016;-91
2022/11/12 13:31:45;;;;;;;15.82;9.38;;;;;;;13.66;100.00;103053.69;12838438;23;20023;-94
2022/11/12 13:37:03;;;;;;;13.18;9.63;;;;;;;13.51;100.00;103016.09;12817408;23;20020;-92
2022/11/12 13:47:33;;;;;;;16.15;9.13;;;;;;;13.94;100.00;103031.16;12819808;23;20017;-91
2022/11/12 13:52:34;;;;;;;14.85;9.30;;;;;;;13.58;100.00;103048.41;12836594;23;20005;-88
2022/11/12 13:57:34;;;;;;;17.20;11.10;;;;;;;12.63;100.00;103060.84;12836515;23;20058;-93
2022/11/12 14:02:35;;;;;;;18.25;10.68;;;;;;;11.82;100.00;103041.66;12863480;23;20399;-90
2022/11/12 14:07:36;;;;;;;14.02;9.82;;;;;;;11.96;100.00;103059.13;12837138;23;20017;-89
2022/11/12 14:12:51;;;;;;;15.57;10.02;;;;;;;11.76;100.00;103048.03;12820193;23;20025;-92
2022/11/12 14:17:58;;;;;;;15.90;10.05;;;;;;;11.42;100.00;103058.97;12799476;23;20033;-89
2022/11/12 14:23:13;;;;;;;14.98;10.18;;;;;;;11.01;100.00;103047.97;12747898;23;20017;-91
2022/11/12 14:28:32;;;;;;;17.08;10.77;;;;;;;10.66;100.00;103042.47;12773357;23;20013;-89
2022/11/12 14:33:33;;;;;;;15.88;10.23;;;;;;;10.47;100.00;103055.06;12774116;23;20013;-90
2022/11/12 14:38:38;;;;;;;16.92;11.00;;;;;;;10.15;100.00;103028.91;12803266;23;20338;-90
2022/11/12 14:43:52;;;;;;;19.02;11.32;;;;;;;10.08;100.00;103045.38;12775614;23;20014;-92
2022/11/12 14:49:03;;;;;;;19.15;10.82;;;;;;;9.89;100.00;103042.22;12773073;23;20032;-90
2022/11/12 14:54:07;;;;;;;20.88;12.27;;;;;;;9.69;100.00;103030.19;12772091;23;20016;-89
2022/11/12 14:59:11;;;;;;;16.63;11.02;;;;;;;9.51;100.00;103022.38;12748061;23;20108;-89
2022/11/12 15:04:19;;;;;;;19.15;11.55;;;;;;;9.39;100.00;103030.28;12748602;23;20028;-89
2022/11/12 15:09:34;;;;;;;24.00;12.68;;;;;;;9.22;100.00;103035.16;12723594;23;20043;-90
2022/11/12 15:14:34;;;;;;;17.67;12.43;;;;;;;8.96;100.00;103027.41;12772125;23;20071;-86
2022/11/12 15:19:35;;;;;;;26.33;14.90;;;;;;;8.79;100.00;103028.66;12773661;23;20028;-89
2022/11/12 15:24:35;;;;;;;20.48;13.77;;;;;;;8.59;100.00;103022.88;12748653;23;20540;-90
2022/11/12 15:29:36;;;;;;;25.33;15.98;;;;;;;8.35;100.00;103021.19;12770145;23;20015;-89
2022/11/12 15:34:39;;;;;;;23.08;15.30;;;;;;;8.14;100.00;103014.53;12771728;23;20018;-89
2022/11/12 15:39:48;;;;;;;29.30;15.63;;;;;;;7.85;100.00;103013.44;12772652;23;20021;-91
2022/11/12 15:44:49;;;;;;;28.58;17.27;;;;;;;7.72;100.00;103013.19;12727960;23;20013;-89
2022/11/12 15:49:54;;;;;;;30.55;18.10;;;;;;;7.62;100.00;103015.31;12751497;23;20020;-90
2022/11/12 15:54:55;;;;;;;30.42;17.77;;;;;;;7.51;100.00;103023.97;12752341;23;20096;-90
2022/11/12 16:00:04;;;;;;;33.63;19.95;;;;;;;7.33;100.00;103010.53;12799331;23;20055;-90
2022/11/12 16:05:08;;;;;;;32.47;19.42;;;;;;;7.13;100.00;102994.56;12726601;23;20009;-91
2022/11/12 16:10:18;;;;;;;30.48;18.73;;;;;;;7.13;100.00;102999.16;12754960;23;20013;-89
2022/11/12 16:15:19;;;;;;;36.13;19.80;;;;;;;7.00;100.00;102999.75;12776978;23;20466;-89
2022/11/12 16:20:22;;;;;;;30.80;21.27;;;;;;;6.84;100.00;102984.22;12750995;23;20017;-89
2022/11/12 16:25:22;;;;;;;33.42;21.13;;;;;;;6.74;100.00;102972.63;12750833;23;20009;-91
2022/11/12 16:30:25;;;;;;;39.33;22.38;;;;;;;6.81;100.00;102987.34;12726818;23;20032;-90
2022/11/12 16:35:26;;;;;;;38.05;23.40;;;;;;;6.73;100.00;102982.75;12775195;23;20056;-90
2022/11/12 16:40:27;;;;;;;41.10;24.88;;;;;;;6.78;100.00;102990.41;12726721;23;20017;-90
2022/11/12 16:45:32;;;;;;;41.90;23.92;;;;;;;6.70;100.00;102984.97;12776007;23;20013;-90
2022/11/12 16:50:33;;;;;;;37.70;23.38;;;;;;;6.64;100.00;102989.28;12753566;23;20048;-90
2022/11/12 16:55:33;;;;;;;35.80;22.70;;;;;;;6.39;100.00;102958.41;12725182;23;20013;-85
2022/11/12 17:00:34;;;;;;;36.47;21.95;;;;;;;6.52;100.00;102997.00;12749645;23;20024;-87
2022/11/12 17:05:34;;;;;;;35.10;22.98;;;;;;;6.40;100.00;102998.41;12773311;23;20040;-87
2022/11/12 17:10:35;;;;;;;39.00;23.20;;;;;;;6.28;100.00;102994.34;12776131;23;20860;-86
2022/11/12 17:15:35;;;;;;;39.17;23.45;;;;;;;5.75;100.00;102920.03;12800894;23;20076;-88
2022/11/12 17:20:36;;;;;;;42.65;24.08;;;;;;;6.06;100.00;102991.31;12749759;23;20009;-86
2022/11/12 17:25:36;;;;;;;43.03;23.45;;;;;;;5.99;100.00;102987.53;12799473;23;20020;-85
2022/11/12 17:30:37;;;;;;;49.55;26.60;;;;;;;5.80;100.00;102969.56;12799708;23;20013;-87
2022/11/12 17:35:37;;;;;;;54.88;30.80;;;;;;;5.82;100.00;102992.97;12800659;23;20021;-86
2022/11/12 17:40:37;;;;;;;52.88;30.63;;;;;;;5.83;100.00;102971.97;12773488;23;20021;-87
2022/11/12 17:45:44;;;;;;;51.90;31.35;;;;;;;5.83;100.00;102994.69;12748732;23;20068;-86
2022/11/12 17:50:44;;;;;;;;;;;;;;;5.74;100.00;103001.16;12750316;23;20116;-86
2022/11/12 17:55:45;;;;;;;49.35;28.33;;;;;;;5.66;100.00;103001.16;12799421;23;19916;-87
2022/11/12 18:00:45;;;;;;;45.80;29.17;;;;;;;5.59;100.00;103003.72;12800089;23;20012;-85
2022/11/12 18:05:54;;;;;;;50.17;29.27;;;;;;;5.41;100.00;102986.63;12772891;23;20440;-85
2022/11/12 18:10:55;;;;;;;41.45;27.10;;;;;;;5.41;100.00;103001.13;12776182;23;20037;-89
2022/11/12 18:15:55;;;;;;;40.33;26.95;;;;;;;5.35;100.00;103004.53;12785824;23;20025;-88
2022/11/12 18:20:56;;;;;;;53.05;28.52;;;;;;;5.29;100.00;103002.47;12801456;23;20048;-88
2022/11/12 18:25:56;;;;;;;47.55;28.75;;;;;;;5.23;100.00;102994.97;12795392;23;20297;-88
2022/11/12 18:31:01;;;;;;;49.10;31.60;;;;;;;5.16;100.00;102989.28;12771267;23;20024;-87
2022/11/12 18:36:11;;;;;;;49.08;30.02;;;;;;;5.12;100.00;103006.19;12802601;23;20009;-88
2022/11/12 18:41:13;;;;;;;51.85;30.65;;;;;;;5.08;100.00;103002.06;12776970;23;20009;-88
2022/11/12 18:46:13;;;;;;;51.08;33.70;;;;;;;5.02;100.00;102995.38;12752874;23;20088;-89
2022/11/12 18:51:15;;;;;;;59.75;36.45;;;;;;;4.97;100.00;102992.31;12777643;23;20017;-90
2022/11/12 18:56:17;;;;;;;92.53;61.22;;;;;;;4.93;100.00;102980.88;12754862;23;20085;-87
2022/11/12 19:01:19;;;;;;;83.72;60.28;;;;;;;4.89;100.00;102979.47;12754611;23;20017;-93
2022/11/12 19:06:20;;;;;;;88.70;63.80;;;;;;;4.85;100.00;102984.41;12729067;23;20036;-88
2022/11/12 19:11:20;;;;;;;84.95;63.50;;;;;;;4.78;100.00;102979.78;12776617;23;20089;-90
2022/11/12 19:16:21;;;;;;;80.03;57.25;;;;;;;4.67;100.00;102960.97;12805253;23;20017;-91
2022/11/12 19:21:23;;;;;;;74.35;54.25;;;;;;;4.73;100.00;102982.13;12753814;23;20024;-89
2022/11/12 19:26:23;;;;;;;74.70;50.10;;;;;;;4.68;100.00;102992.72;12805234;23;20009;-88
2022/11/12 19:31:25;;;;;;;69.90;46.53;;;;;;;4.64;100.00;102984.84;12803937;23;20024;-90
2022/11/12 19:36:25;;;;;;;60.15;41.45;;;;;;;4.44;100.00;102961.53;12803678;23;20016;-90
2022/11/12 19:41:26;;;;;;;62.42;41.22;;;;;;;4.61;100.00;102989.75;12803920;23;20013;-93
2022/11/12 19:46:26;;;;;;;61.78;41.67;;;;;;;4.59;100.00;102987.22;12804636;23;20017;-92
2022/11/12 19:51:27;;;;;;;65.75;38.65;;;;;;;4.56;100.00;102973.88;12806003;23;20260;-88
2022/11/12 19:56:28;;;;;;;61.55;39.47;;;;;;;4.54;100.00;102980.53;12805688;23;20036;-89
2022/11/12 20:01:28;;;;;;;63.08;38.92;;;;;;;4.47;100.00;102969.41;12802579;23;20371;-91
2022/11/12 20:06:29;;;;;;;55.13;36.50;;;;;;;4.51;100.00;102973.53;12801786;23;20013;-89
2022/11/12 20:11:30;;;;;;;58.95;35.22;;;;;;;4.53;100.00;102970.66;12805494;23;20088;-91
2022/11/12 20:16:31;;;;;;;62.25;36.95;;;;;;;4.52;100.00;102983.41;12769453;23;20040;-90
2022/11/12 20:21:32;;;;;;;56.35;37.47;;;;;;;4.47;100.00;102966.69;12795546;23;20032;-91
2022/11/12 20:26:32;;;;;;;59.55;38.55;;;;;;;4.51;100.00;102968.06;12745409;23;20013;-92
2022/11/12 20:31:33;;;;;;;62.25;38.65;;;;;;;4.42;100.00;102955.38;12800217;23;20024;-93
2022/11/12 20:36:33;;;;;;;57.60;37.83;;;;;;;4.43;100.00;102954.38;12772176;23;20017;-93
2022/11/12 20:41:34;;;;;;;57.00;37.38;;;;;;;4.42;100.00;102958.13;12796090;23;20021;-90
2022/11/12 20:46:34;;;;;;;62.45;39.90;;;;;;;4.37;100.00;102944.13;12796926;23;20021;-91
2022/11/12 20:51:35;;;;;;;66.80;41.67;;;;;;;4.36;100.00;102953.31;12797079;23;20013;-91
2022/11/12 20:56:35;;;;;;;60.08;40.40;;;;;;;4.31;100.00;102947.50;12795474;23;20013;-91
2022/11/12 21:01:36;;;;;;;63.65;40.65;;;;;;;4.27;100.00;102944.25;12796236;23;20032;-91
2022/11/12 21:06:36;;;;;;;58.85;40.72;;;;;;;4.24;100.00;102947.31;12797631;23;20013;-91
2022/11/12 21:11:37;;;;;;;59.35;38.45;;;;;;;4.02;100.00;102915.97;12744292;23;20013;-92
2022/11/12 21:16:37;;;;;;;59.55;38.35;;;;;;;4.17;100.00;102938.88;12744225;23;20485;-91
2022/11/12 21:21:37;;;;;;;60.42;37.20;;;;;;;4.15;100.00;102938.19;12796630;23;20340;-91
2022/11/12 21:26:38;;;;;;;60.47;38.22;;;;;;;4.12;100.00;102940.41;12768107;23;20359;-92
2022/11/12 21:31:38;;;;;;;65.03;39.10;;;;;;;4.09;100.00;102941.56;12768816;23;20028;-83
2022/11/12 21:36:39;;;;;;;58.88;35.90;;;;;;;4.08;100.00;102942.59;12795358;23;20024;-92
2022/11/12 21:41:39;;;;;;;60.88;36.25;;;;;;;4.06;100.00;102941.91;12794981;23;20013;-92
2022/11/12 21:46:42;;;;;;;60.17;40.13;;;;;;;4.01;100.00;102938.78;12772478;23;20043;-91
2022/11/12 21:51:42;;;;;;;54.60;35.40;;;;;;;4.03;100.00;102939.47;12748344;23;20059;-91
2022/11/12 21:56:43;;;;;;;58.70;36.80;;;;;;;4.01;100.00;102931.47;12799753;23;20009;-89
2022/11/12 22:01:44;;;;;;;58.90;36.67;;;;;;;3.99;100.00;102935.38;12773820;23;20044;-92
2022/11/12 22:06:45;;;;;;;58.75;35.25;;;;;;;3.96;100.00;102931.09;12782655;23;20013;-91
2022/11/12 22:11:45;;;;;;;62.80;37.85;;;;;;;3.95;100.00;102944.88;12801548;23;20013;-91
2022/11/12 22:16:46;;;;;;;66.75;41.75;;;;;;;3.72;100.00;102918.16;12772057;23;20013;-91
2022/11/12 22:21:46;;;;;;;69.43;43.20;;;;;;;3.75;100.00;102912.38;12772203;23;20071;-89
2022/11/12 22:26:47;;;;;;;67.82;42.92;;;;;;;3.89;100.00;102940.09;12772686;23;20021;-92
2022/11/12 22:31:47;;;;;;;63.55;41.35;;;;;;;3.86;100.00;102934.94;12772572;23;20013;-92
2022/11/12 22:36:48;;;;;;;64.47;40.85;;;;;;;3.81;100.00;102919.94;12747634;23;20005;-92
2022/11/12 22:41:48;;;;;;;67.50;41.35;;;;;;;3.76;100.00;102919.56;12796846;23;20017;-91
2022/11/12 22:46:49;;;;;;;62.45;39.72;;;;;;;3.73;100.00;102914.41;12797306;23;20095;-89
2022/11/12 22:51:49;;;;;;;65.30;39.95;;;;;;;3.75;100.00;102895.19;12767617;23;20103;-91
2022/11/12 22:56:50;;;;;;;77.82;43.88;;;;;;;3.78;100.00;102901.19;12770277;23;20335;-91
2022/11/12 23:01:50;;;;;;;75.68;44.15;;;;;;;3.91;100.00;102899.91;12798703;23;20426;-92
2022/11/12 23:06:50;;;;;;;69.03;40.67;;;;;;;3.88;100.00;102913.84;12771889;23;20009;-91
2022/11/12 23:11:51;;;;;;;68.32;41.90;;;;;;;3.39;100.00;102835.34;12806452;23;20021;-80
2022/11/12 23:16:51;;;;;;;67.93;40.20;;;;;;;3.81;100.00;102906.31;12798479;23;20036;-91